createdAt,value
2023-04-07T00:02:23.512Z,14.82
2023-04-07T00:04:48.149Z,13.02
2023-04-07T00:07:12.807Z,13.95
2023-04-07T00:09:37.394Z,14.50
2023-04-07T00:12:03.766Z,13.90
2023-04-07T00:14:28.181Z,15.15
2023-04-07T00:16:52.777Z,14.10
2023-04-07T00:19:17.240Z,14.00
2023-04-07T00:21:41.741Z,14.32
2023-04-07T00:24:06.558Z,14.30
2023-04-07T00:26:32.846Z,14.25
2023-04-07T00:28:59.112Z,14.50
2023-04-07T00:31:23.560Z,14.27
2023-04-07T00:33:49.637Z,15.32
2023-04-07T00:36:14.173Z,13.55
2023-04-07T00:38:38.830Z,14.38
2023-04-07T00:41:03.572Z,14.55
2023-04-07T00:43:28.216Z,14.88
2023-04-07T00:45:54.869Z,14.35
2023-04-07T00:48:19.438Z,14.48
2023-04-07T00:50:44.114Z,15.05
2023-04-07T00:53:08.978Z,14.52
2023-04-07T00:55:33.614Z,15.13
2023-04-07T00:57:58.337Z,14.68
2023-04-07T01:00:23.035Z,14.60
2023-04-07T01:02:57.810Z,14.20
2023-04-07T01:05:29.937Z,15.52
2023-04-07T01:08:02.024Z,14.85
2023-04-07T01:10:34.471Z,15.48
2023-04-07T01:13:18.670Z,14.75
2023-04-07T01:15:49.188Z,14.73
2023-04-07T01:18:23.428Z,15.52
2023-04-07T01:20:51.675Z,14.77
2023-04-07T01:23:24.619Z,15.32
2023-04-07T01:26:05.477Z,16.38
2023-04-07T01:28:50.668Z,15.60
2023-04-07T01:31:18.095Z,15.52
2023-04-07T01:33:46.829Z,14.18
2023-04-07T01:36:12.791Z,15.48
2023-04-07T01:38:38.763Z,15.70
2023-04-07T01:41:04.662Z,15.82
2023-04-07T01:43:30.048Z,15.90
2023-04-07T01:45:57.188Z,15.23
2023-04-07T01:48:23.644Z,15.02
2023-04-07T01:50:48.430Z,15.23
2023-04-07T01:53:13.564Z,15.70
2023-04-07T01:55:38.935Z,15.75
2023-04-07T01:58:07.229Z,16.45
2023-04-07T02:00:34.439Z,16.30
2023-04-07T02:03:10.693Z,15.98
2023-04-07T02:05:40.073Z,16.90
2023-04-07T02:08:09.407Z,16.00
2023-04-07T02:10:38.468Z,15.63
2023-04-07T02:13:05.177Z,16.52
2023-04-07T02:15:31.862Z,16.02
2023-04-07T02:17:59.737Z,16.73
2023-04-07T02:20:25.550Z,15.95
2023-04-07T02:22:51.798Z,15.85
2023-04-07T02:25:24.246Z,15.05
2023-04-07T02:27:51.037Z,16.35
2023-04-07T02:30:16.777Z,16.77
2023-04-07T02:32:42.621Z,15.98
2023-04-07T02:35:08.151Z,16.48
2023-04-07T02:37:32.798Z,16.02
2023-04-07T02:40:00.247Z,16.60
2023-04-07T02:42:25.079Z,15.88
2023-04-07T02:44:49.705Z,17.42
2023-04-07T02:47:14.222Z,17.13
2023-04-07T02:49:38.699Z,16.42
2023-04-07T02:52:04.003Z,16.83
2023-04-07T02:54:28.483Z,17.98
2023-04-07T02:56:54.697Z,17.27
2023-04-07T02:59:19.185Z,17.20
2023-04-07T03:01:43.788Z,16.75
2023-04-07T03:04:08.492Z,17.65
2023-04-07T03:06:33.541Z,17.40
2023-04-07T03:09:04.019Z,17.75
2023-04-07T03:11:28.614Z,18.02
2023-04-07T03:13:56.805Z,17.58
2023-04-07T03:16:22.069Z,16.83
2023-04-07T03:18:57.316Z,17.58
2023-04-07T03:21:21.903Z,17.90
2023-04-07T03:23:46.692Z,19.25
2023-04-07T03:26:11.245Z,19.25
2023-04-07T03:28:36.476Z,17.67
2023-04-07T03:31:02.709Z,18.23
2023-04-07T03:33:28.069Z,18.13
2023-04-07T03:35:53.094Z,19.27
2023-04-07T03:38:18.791Z,19.00
2023-04-07T03:40:43.449Z,18.75
2023-04-07T03:43:12.480Z,20.73
2023-04-07T03:46:19.809Z,19.65
2023-04-07T03:49:06.803Z,18.35
2023-04-07T03:51:31.370Z,18.42
2023-04-07T03:53:56.774Z,18.90
2023-04-07T03:56:35.109Z,19.20
2023-04-07T03:59:00.408Z,19.55
2023-04-07T04:01:29.691Z,19.45
2023-04-07T04:03:57.373Z,20.60
2023-04-07T04:06:29.057Z,19.30
2023-04-07T04:09:02.378Z,19.83
2023-04-07T04:11:29.598Z,20.55
2023-04-07T04:13:57.961Z,18.40
2023-04-07T04:16:22.957Z,19.02
2023-04-07T04:18:49.352Z,19.83
2023-04-07T04:21:14.853Z,21.23
2023-04-07T04:23:42.826Z,20.73
2023-04-07T04:26:07.471Z,21.90
2023-04-07T04:28:32.482Z,19.45
2023-04-07T04:30:58.859Z,21.17
2023-04-07T04:33:23.901Z,20.63
2023-04-07T04:35:52.687Z,20.40
2023-04-07T04:38:18.581Z,21.23
2023-04-07T04:40:51.621Z,20.98
2023-04-07T04:43:21.662Z,21.55
2023-04-07T04:45:46.271Z,20.30
2023-04-07T04:48:13.330Z,21.90
2023-04-07T04:50:37.963Z,21.90
2023-04-07T04:53:07.482Z,21.63
2023-04-07T04:55:32.212Z,19.90
2023-04-07T04:57:58.772Z,22.25
2023-04-07T05:00:41.642Z,21.30
2023-04-07T05:03:08.527Z,22.00
2023-04-07T05:05:57.042Z,21.65
2023-04-07T05:08:21.497Z,22.52
2023-04-07T05:10:46.717Z,23.42
2023-04-07T05:13:16.916Z,23.95
2023-04-07T05:15:43.507Z,23.38
2023-04-07T05:18:11.216Z,24.25
2023-04-07T05:20:36.542Z,23.55
2023-04-07T05:23:01.180Z,23.77
2023-04-07T05:25:30.033Z,23.85
2023-04-07T05:27:59.207Z,24.70
2023-04-07T05:30:25.202Z,24.55
2023-04-07T05:32:50.633Z,23.90
2023-04-07T05:35:25.202Z,24.40
2023-04-07T05:37:53.929Z,23.97
2023-04-07T05:40:19.549Z,23.92
2023-04-07T05:42:44.849Z,24.25
2023-04-07T05:45:11.883Z,24.15
2023-04-07T05:47:41.453Z,23.02
2023-04-07T05:50:08.960Z,24.50
2023-04-07T05:52:34.018Z,22.25
2023-04-07T05:55:09.018Z,21.55
2023-04-07T05:57:34.715Z,21.30
2023-04-07T06:00:01.410Z,22.58
2023-04-07T06:02:29.190Z,21.33
2023-04-07T06:04:56.663Z,21.27
2023-04-07T06:07:22.628Z,20.27
2023-04-07T06:09:47.284Z,21.27
2023-04-07T06:12:12.847Z,21.25
2023-04-07T06:14:37.409Z,11.95
2023-04-07T06:17:02.591Z,14.20
2023-04-07T06:19:27.667Z,14.57
2023-04-07T06:21:53.857Z,11.00
2023-04-07T06:24:18.854Z,17.95
2023-04-07T06:26:43.854Z,17.90
2023-04-07T06:29:15.374Z,17.33
2023-04-07T06:31:41.742Z,17.23
2023-04-07T06:34:10.110Z,17.17
2023-04-07T06:36:36.538Z,18.15
2023-04-07T06:39:06.810Z,17.02
2023-04-07T06:41:34.112Z,16.75
2023-04-07T06:43:59.158Z,17.55
2023-04-07T06:46:27.289Z,17.75
2023-04-07T06:48:55.618Z,17.70
2023-04-07T06:51:24.545Z,17.45
2023-04-07T06:53:52.714Z,18.33
2023-04-07T06:56:19.239Z,18.08
2023-04-07T06:58:44.652Z,18.55
2023-04-07T07:01:12.564Z,18.73
2023-04-07T07:03:42.975Z,17.65
2023-04-07T07:06:08.458Z,17.67
2023-04-07T07:08:35.239Z,18.95
2023-04-07T07:11:01.180Z,20.38
2023-04-07T07:13:28.446Z,19.40
2023-04-07T07:15:57.180Z,18.33
2023-04-07T07:18:22.554Z,17.58
2023-04-07T07:20:49.614Z,19.17
2023-04-07T07:23:15.602Z,18.90
2023-04-07T07:25:42.674Z,18.23
2023-04-07T07:28:07.553Z,19.33
2023-04-07T07:30:36.730Z,19.17
2023-04-07T07:33:02.081Z,18.35
2023-04-07T07:35:27.380Z,18.50
2023-04-07T07:37:52.481Z,18.45
2023-04-07T07:40:18.683Z,19.90
2023-04-07T07:42:46.492Z,17.95
2023-04-07T07:45:14.758Z,18.90
2023-04-07T07:47:42.123Z,17.77
2023-04-07T07:50:08.417Z,17.98
2023-04-07T07:52:33.596Z,18.52
2023-04-07T07:54:58.985Z,17.63
2023-04-07T07:57:25.801Z,18.10
2023-04-07T07:59:50.910Z,18.70
2023-04-07T08:02:18.423Z,18.75
2023-04-07T08:04:45.243Z,17.52
2023-04-07T08:07:11.596Z,18.45
2023-04-07T08:09:36.626Z,17.70
2023-04-07T08:12:24.790Z,17.75
2023-04-07T08:14:50.866Z,16.27
2023-04-07T08:17:15.791Z,16.95
2023-04-07T08:19:41.157Z,16.17
2023-04-07T08:22:08.105Z,17.42
2023-04-07T08:24:33.536Z,16.42
2023-04-07T08:27:00.136Z,14.55
2023-04-07T08:29:25.216Z,13.73
2023-04-07T08:31:50.252Z,13.43
2023-04-07T08:34:16.747Z,14.52
2023-04-07T08:36:44.100Z,13.00
2023-04-07T08:39:10.255Z,13.68
2023-04-07T08:41:38.867Z,15.20
2023-04-07T08:44:04.500Z,12.07
2023-04-07T08:46:30.640Z,13.77
2023-04-07T08:48:58.208Z,12.98
2023-04-07T08:51:28.785Z,14.07
2023-04-07T08:53:56.711Z,12.80
2023-04-07T08:56:25.270Z,11.18
2023-04-07T08:58:53.616Z,11.48
2023-04-07T09:01:19.526Z,12.18
2023-04-07T09:03:46.189Z,12.02
2023-04-07T09:06:12.766Z,12.05
2023-04-07T09:08:38.905Z,10.77
2023-04-07T09:11:04.450Z,8.82
2023-04-07T09:13:34.154Z,9.63
2023-04-07T09:16:02.198Z,10.35
2023-04-07T09:18:30.829Z,8.70
2023-04-07T09:21:03.534Z,10.18
2023-04-07T09:23:33.619Z,9.60
2023-04-07T09:28:27.561Z,11.77
2023-04-07T09:30:57.337Z,10.68
2023-04-07T09:33:34.892Z,11.50
2023-04-07T09:36:03.668Z,9.50
2023-04-07T09:38:35.512Z,10.77
2023-04-07T09:41:09.957Z,9.95
2023-04-07T09:43:47.209Z,10.50
2023-04-07T09:46:15.791Z,10.43
2023-04-07T09:48:43.922Z,12.43
2023-04-07T09:51:18.879Z,9.68
2023-04-07T09:53:50.413Z,11.27
2023-04-07T09:56:17.599Z,11.60
2023-04-07T09:58:44.661Z,9.93
2023-04-07T10:01:10.850Z,8.98
2023-04-07T10:03:39.088Z,9.63
2023-04-07T10:06:04.375Z,10.52
2023-04-07T10:08:31.821Z,10.65
2023-04-07T10:10:58.987Z,9.88
2023-04-07T10:13:34.539Z,9.77
2023-04-07T10:16:00.324Z,9.63
2023-04-07T10:18:29.804Z,9.93
2023-04-07T10:20:57.296Z,10.43
2023-04-07T10:23:27.526Z,9.80
2023-04-07T10:26:03.559Z,10.07
2023-04-07T10:28:29.966Z,9.02
2023-04-07T10:30:55.252Z,9.95
2023-04-07T10:33:20.291Z,10.38
2023-04-07T10:36:16.752Z,9.68
2023-04-07T10:38:41.732Z,10.38
2023-04-07T10:41:35.039Z,10.73
2023-04-07T10:43:59.922Z,10.35
2023-04-07T10:46:24.909Z,10.20
2023-04-07T10:49:11.787Z,10.38
2023-04-07T10:51:37.812Z,10.57
2023-04-07T10:54:17.839Z,10.60
2023-04-07T10:59:27.915Z,12.10
2023-04-07T11:02:21.238Z,11.40
2023-04-07T11:04:48.322Z,12.02
2023-04-07T11:07:16.553Z,11.95
2023-04-07T11:09:42.369Z,12.30
2023-04-07T11:12:07.100Z,10.40
2023-04-07T11:14:41.598Z,10.20
2023-04-07T11:17:09.102Z,11.05
2023-04-07T11:19:52.818Z,11.65
2023-04-07T11:24:48.108Z,11.20
2023-04-07T11:27:15.024Z,11.27
2023-04-07T11:29:39.862Z,11.18
2023-04-07T11:32:04.445Z,10.88
2023-04-07T11:34:31.790Z,10.63
2023-04-07T11:36:59.590Z,11.15
2023-04-07T11:39:28.202Z,10.75
2023-04-07T11:41:52.746Z,11.07
2023-04-07T11:44:17.510Z,10.18
2023-04-07T11:46:54.959Z,10.82
2023-04-07T11:49:19.684Z,10.95
2023-04-07T11:51:45.472Z,10.93
2023-04-07T11:54:10.216Z,10.07
2023-04-07T11:56:46.607Z,10.35
2023-04-07T11:59:22.921Z,9.57
2023-04-07T12:01:48.384Z,10.10
2023-04-07T12:04:16.042Z,9.38
2023-04-07T12:06:42.601Z,9.77
2023-04-07T12:09:07.465Z,10.90
2023-04-07T12:11:32.858Z,11.63
2023-04-07T12:13:58.800Z,10.65
2023-04-07T12:16:23.379Z,11.35
2023-04-07T12:18:47.863Z,10.50
2023-04-07T12:21:12.587Z,11.38
2023-04-07T12:23:37.046Z,11.90
2023-04-07T12:26:02.386Z,11.57
2023-04-07T12:28:27.756Z,11.07
2023-04-07T12:30:53.768Z,10.40
2023-04-07T12:33:18.254Z,12.63
2023-04-07T12:35:42.881Z,11.73
2023-04-07T12:38:08.302Z,10.90
2023-04-07T12:40:32.777Z,11.05
2023-04-07T12:42:58.312Z,11.80
2023-04-07T12:45:23.143Z,11.90
2023-04-07T12:47:49.075Z,12.18
2023-04-07T12:50:13.676Z,12.52
2023-04-07T12:52:38.305Z,13.85
2023-04-07T12:55:02.934Z,13.00
2023-04-07T12:57:27.689Z,14.13
2023-04-07T12:59:53.368Z,16.30
2023-04-07T13:02:19.390Z,12.68
2023-04-07T13:04:47.045Z,13.13
2023-04-07T13:07:11.558Z,12.82
2023-04-07T13:09:36.288Z,14.40
2023-04-07T13:12:00.729Z,13.32
2023-04-07T13:14:25.550Z,14.63
2023-04-07T13:16:49.979Z,14.75
2023-04-07T13:19:14.604Z,13.88
2023-04-07T13:21:46.751Z,15.05
2023-04-07T13:24:12.221Z,15.70
2023-04-07T13:26:36.645Z,14.35
2023-04-07T13:29:01.337Z,14.32
2023-04-07T13:31:25.872Z,14.85
2023-04-07T13:33:50.860Z,14.48
2023-04-07T13:36:15.591Z,14.10
2023-04-07T13:38:42.470Z,16.05
2023-04-07T13:41:07.286Z,15.43
2023-04-07T13:43:31.864Z,15.27
2023-04-07T13:45:56.807Z,15.18
2023-04-07T13:48:21.714Z,15.15
2023-04-07T13:50:46.249Z,15.18
2023-04-07T13:53:10.820Z,14.18
2023-04-07T13:55:36.829Z,13.25
2023-04-07T13:58:01.415Z,13.07
2023-04-07T14:00:26.318Z,14.05
2023-04-07T14:02:50.973Z,13.60
2023-04-07T14:05:15.570Z,13.60
2023-04-07T14:07:40.113Z,13.70
2023-04-07T14:10:04.828Z,14.27
2023-04-07T14:12:30.759Z,12.57
2023-04-07T14:14:55.573Z,12.90
2023-04-07T14:17:20.676Z,12.70
2023-04-07T14:19:45.211Z,11.77
2023-04-07T14:22:09.795Z,14.73
2023-04-07T14:24:34.290Z,12.32
2023-04-07T14:26:59.039Z,12.80
2023-04-07T14:29:24.956Z,12.60
2023-04-07T14:31:49.792Z,13.05
2023-04-07T14:34:14.279Z,12.90
2023-04-07T14:36:38.844Z,13.30
2023-04-07T14:39:03.979Z,13.63
2023-04-07T14:41:28.956Z,13.48
2023-04-07T14:43:56.479Z,13.48
2023-04-07T14:46:22.674Z,14.15
2023-04-07T14:48:47.331Z,14.43
2023-04-07T14:51:15.359Z,14.02
2023-04-07T14:53:39.921Z,14.38
2023-04-07T14:56:06.142Z,13.00
2023-04-07T14:58:30.657Z,13.95
2023-04-07T15:00:55.325Z,13.52
2023-04-07T15:03:21.450Z,13.68
2023-04-07T15:05:46.447Z,13.98
2023-04-07T15:08:11.044Z,14.10
2023-04-07T15:10:35.828Z,15.18
2023-04-07T15:13:00.340Z,15.38
2023-04-07T15:15:26.116Z,15.90
2023-04-07T15:17:50.691Z,16.50
2023-04-07T15:20:16.706Z,15.35
2023-04-07T15:22:41.295Z,14.73
2023-04-07T15:25:06.429Z,14.25
2023-04-07T15:27:30.875Z,14.23
2023-04-07T15:29:55.434Z,12.60
2023-04-07T15:32:19.941Z,10.68
2023-04-07T15:34:44.569Z,11.45
2023-04-07T15:37:10.742Z,12.68
2023-04-07T15:39:35.390Z,13.20
2023-04-07T15:41:59.855Z,14.75
2023-04-07T15:44:24.515Z,16.27
2023-04-07T15:46:49.630Z,15.95
2023-04-07T15:49:14.367Z,16.40
2023-04-07T15:51:38.985Z,16.88
2023-04-07T15:54:04.935Z,17.17
2023-04-07T15:56:29.400Z,16.80
2023-04-07T15:58:53.922Z,17.73
2023-04-07T16:01:18.424Z,18.08
2023-04-07T16:03:43.054Z,16.38
2023-04-07T16:06:07.694Z,16.08
2023-04-07T16:08:32.327Z,17.10
2023-04-07T16:10:58.188Z,18.67
2023-04-07T16:13:22.888Z,16.80
2023-04-07T16:15:47.410Z,17.05
2023-04-07T16:18:12.805Z,17.80
2023-04-07T16:20:37.376Z,17.65
2023-04-07T16:23:01.987Z,18.40
2023-04-07T16:25:26.620Z,17.73
2023-04-07T16:27:53.781Z,18.00
2023-04-07T16:30:18.622Z,18.55
2023-04-07T16:32:44.698Z,17.23
2023-04-07T16:35:10.746Z,16.77
2023-04-07T16:37:35.415Z,19.23
2023-04-07T16:40:00.688Z,17.75
2023-04-07T16:42:28.606Z,17.88
2023-04-07T16:44:54.548Z,19.15
2023-04-07T16:47:19.332Z,19.75
2023-04-07T16:49:46.700Z,19.65
2023-04-07T16:52:11.279Z,19.67
2023-04-07T16:54:36.262Z,20.55
2023-04-07T16:57:00.835Z,20.25
2023-04-07T16:59:25.604Z,18.63
2023-04-07T17:01:51.615Z,21.35
2023-04-07T17:04:16.196Z,20.77
2023-04-07T17:06:43.584Z,21.33
2023-04-07T17:09:08.098Z,21.05
2023-04-07T17:11:32.695Z,21.13
2023-04-07T17:13:57.906Z,21.83
2023-04-07T17:16:22.606Z,23.05
2023-04-07T17:18:48.806Z,21.17
2023-04-07T17:21:13.706Z,21.45
2023-04-07T17:23:38.490Z,20.75
2023-04-07T17:26:03.201Z,20.27
2023-04-07T17:28:30.027Z,22.08
2023-04-07T17:30:56.056Z,20.77
2023-04-07T17:33:20.873Z,20.73
2023-04-07T17:35:49.977Z,20.55
2023-04-07T17:38:14.512Z,21.13
2023-04-07T17:40:39.130Z,20.85
2023-04-07T17:43:03.722Z,21.35
2023-04-07T17:45:28.433Z,21.20
2023-04-07T17:47:53.370Z,21.35
2023-04-07T17:50:18.358Z,21.60
2023-04-07T17:52:45.254Z,23.38
2023-04-07T17:55:10.886Z,23.60
2023-04-07T17:57:37.360Z,23.20
2023-04-07T18:00:01.842Z,22.08
2023-04-07T18:02:26.879Z,22.75
2023-04-07T18:04:54.761Z,22.58
2023-04-07T18:07:19.291Z,23.23
2023-04-07T18:09:45.412Z,23.33
2023-04-07T18:12:10.108Z,23.65
2023-04-07T18:14:34.700Z,24.42
2023-04-07T18:16:59.320Z,22.85
2023-04-07T18:19:24.281Z,23.77
2023-04-07T18:21:50.364Z,23.58
2023-04-07T18:24:17.460Z,23.90
2023-04-07T18:26:45.021Z,23.02
2023-04-07T18:29:13.585Z,21.63
2023-04-07T18:31:43.317Z,22.73
2023-04-07T18:34:08.468Z,24.88
2023-04-07T18:36:33.284Z,24.52
2023-04-07T18:39:00.762Z,21.25
2023-04-07T18:41:25.266Z,23.10
2023-04-07T18:43:53.711Z,21.95
2023-04-07T18:46:18.394Z,20.77
2023-04-07T18:48:44.551Z,22.35
2023-04-07T18:51:09.344Z,22.58
2023-04-07T18:53:39.393Z,21.08
2023-04-07T18:56:04.380Z,22.00
2023-04-07T18:58:28.972Z,23.25
2023-04-07T19:00:55.060Z,22.10
2023-04-07T19:03:20.009Z,22.67
2023-04-07T19:05:47.655Z,22.67
2023-04-07T19:08:12.461Z,23.17
2023-04-07T19:10:40.847Z,22.95
2023-04-07T19:13:07.380Z,22.40
2023-04-07T19:15:34.501Z,22.40
2023-04-07T19:18:00.609Z,21.50
2023-04-07T19:20:25.663Z,23.35
2023-04-07T19:22:52.504Z,23.17
2023-04-07T19:25:20.040Z,22.35
2023-04-07T19:27:44.877Z,22.85
2023-04-07T19:30:22.377Z,23.77
2023-04-07T19:32:50.452Z,22.63
2023-04-07T19:35:17.186Z,22.58
2023-04-07T19:37:42.239Z,24.13
2023-04-07T19:40:07.789Z,23.20
2023-04-07T19:42:32.525Z,24.23
2023-04-07T19:44:58.458Z,23.15
2023-04-07T19:47:23.449Z,25.08
2023-04-07T19:49:48.507Z,23.90
2023-04-07T19:52:14.534Z,24.98
2023-04-07T19:54:39.059Z,23.40
2023-04-07T19:57:03.725Z,23.63
2023-04-07T19:59:28.224Z,25.02
2023-04-07T20:01:53.505Z,23.17
2023-04-07T20:04:18.177Z,23.83
2023-04-07T20:06:42.820Z,24.55
2023-04-07T20:09:08.921Z,23.52
2023-04-07T20:11:33.431Z,24.25
2023-04-07T20:13:57.942Z,23.50
2023-04-07T20:16:22.554Z,23.05
2023-04-07T20:18:48.166Z,22.98
2023-04-07T20:21:13.576Z,21.80
2023-04-07T20:23:44.360Z,22.00
2023-04-07T20:26:13.104Z,22.35
2023-04-07T20:28:39.695Z,21.63
2023-04-07T20:31:05.087Z,35.90
2023-04-07T20:33:29.935Z,31.30
2023-04-07T20:35:54.865Z,24.83
2023-04-07T20:38:20.345Z,21.58
2023-04-07T20:40:46.339Z,22.33
2023-04-07T20:43:12.366Z,22.63
2023-04-07T20:45:37.280Z,22.02
2023-04-07T20:48:01.842Z,23.52
2023-04-07T20:50:27.131Z,22.48
2023-04-07T20:52:52.704Z,22.27
2023-04-07T20:55:17.383Z,23.50
2023-04-07T20:57:42.555Z,24.48
2023-04-07T21:00:10.365Z,23.90
2023-04-07T21:02:36.026Z,23.40
2023-04-07T21:05:01.634Z,24.45
2023-04-07T21:07:27.964Z,25.17
2023-04-07T21:09:53.020Z,22.77
2023-04-07T21:12:17.856Z,25.48
2023-04-07T21:14:43.058Z,25.25
2023-04-07T21:17:09.439Z,25.85
2023-04-07T21:19:34.803Z,25.55
2023-04-07T21:22:00.604Z,24.45
2023-04-07T21:24:25.226Z,23.85
2023-04-07T21:26:49.904Z,24.70
2023-04-07T21:29:14.614Z,24.33
2023-04-07T21:31:39.789Z,23.55
2023-04-07T21:34:06.170Z,23.65
2023-04-07T21:36:31.646Z,23.48
2023-04-07T21:38:56.276Z,24.17
2023-04-07T21:41:21.231Z,24.98
2023-04-07T21:43:46.229Z,24.33
2023-04-07T21:46:10.947Z,24.75
2023-04-07T21:48:36.047Z,23.40
2023-04-07T21:51:03.201Z,23.20
2023-04-07T21:53:27.870Z,24.48
2023-04-07T21:55:52.642Z,24.77
2023-04-07T21:58:17.252Z,24.45
2023-04-07T22:00:42.114Z,23.92
2023-04-07T22:03:07.266Z,24.85
2023-04-07T22:05:32.555Z,25.48
2023-04-07T22:07:58.691Z,24.00
2023-04-07T22:10:23.418Z,25.52
2023-04-07T22:12:48.062Z,25.77
2023-04-07T22:15:14.090Z,26.00
2023-04-07T22:17:40.136Z,25.13
2023-04-07T22:20:05.747Z,25.80
2023-04-07T22:22:30.654Z,26.15
2023-04-07T22:24:56.912Z,25.08
2023-04-07T22:27:21.596Z,26.95
2023-04-07T22:29:46.765Z,25.20
2023-04-07T22:32:13.530Z,25.67
2023-04-07T22:34:38.457Z,25.52
2023-04-07T22:37:03.105Z,25.45
2023-04-07T22:39:30.851Z,25.80
2023-04-07T22:41:57.037Z,26.77
2023-04-07T22:44:22.078Z,26.90
2023-04-07T22:46:46.701Z,26.50
2023-04-07T22:49:11.669Z,26.75
2023-04-07T22:51:37.734Z,27.45
2023-04-07T22:54:02.384Z,28.45
2023-04-07T22:56:27.388Z,27.63
2023-04-07T22:58:53.648Z,26.35
2023-04-07T23:01:18.712Z,26.95
2023-04-07T23:03:43.869Z,26.90
2023-04-07T23:06:08.810Z,28.70
2023-04-07T23:08:33.533Z,26.42
2023-04-07T23:10:58.196Z,25.95
2023-04-07T23:13:23.124Z,26.58
2023-04-07T23:15:49.173Z,27.48
2023-04-07T23:18:13.803Z,28.45
2023-04-07T23:20:38.433Z,27.73
2023-04-07T23:23:03.567Z,28.20
2023-04-07T23:25:39.767Z,27.17
2023-04-07T23:28:05.800Z,28.38
2023-04-07T23:30:30.634Z,28.30
2023-04-07T23:32:56.829Z,29.08
2023-04-07T23:35:21.535Z,27.88
2023-04-07T23:37:46.119Z,29.95
2023-04-07T23:40:11.750Z,27.35
2023-04-07T23:42:36.958Z,27.98
2023-04-07T23:45:01.458Z,27.80
2023-04-07T23:47:28.007Z,26.95
2023-04-07T23:49:54.509Z,26.30
2023-04-07T23:52:21.622Z,27.50
2023-04-07T23:54:46.649Z,27.10
2023-04-07T23:57:11.815Z,26.92
2023-04-07T23:59:36.519Z,28.17
